Terminal Aerodrome Forecast
Issued by NWS

Home | Current Version | Previous Version | Graphics & Text | Print | Product List | Glossary On
Versions: 1 2 3 4 5 6 7 8 9 10 11 12 13 14 15
000
FTUS43 KICT 130500
TAFRSL
TAF
KRSL 130522Z 1306/1406 03012KT P6SM SCT070 BKN120
     FM131400 36020G30KT P6SM BKN035 OVC050
     FM131700 35026G35KT 5SM -RA OVC016
     FM140300 36019G28KT 4SM -RASN OVC012=

USA.gov is the U.S. government's official web portal to all federal, state and local government web resources and services.